Time;durP1;ratioP1;P1;durP2;ratioP2;P2;SDS_P1;SDS_P2;PMS_P1;PMS_P2;Temp;Humidity;BMP_temperature;BMP_pressure;BME280_temperature;BME280_humidity;BME280_pressure;Samples;Min_cycle;Max_cycle;Signal;HPM_P1;HPM_P2
2022/10/20 00:00:50;;;;;;;;;;;21.00;99.90;;;;;;5032481;28;20056;-76
2022/10/20 00:03:17;;;;;;;;;;;21.10;99.90;;;;;;5031739;28;19913;-74
2022/10/20 00:05:45;;;;;;;;;;;21.10;99.90;;;;;;5032083;28;19916;-68
2022/10/20 00:08:12;;;;;;;;;;;21.20;99.90;;;;;;5032400;28;19915;-70
2022/10/20 00:10:38;;;;;;;;;;;21.20;99.90;;;;;;5032285;28;19960;-72
2022/10/20 00:13:08;;;;;;;;;;;21.30;99.90;;;;;;5031921;28;19913;-69
2022/10/20 00:15:35;;;;;;;;;;;21.30;99.90;;;;;;5032291;28;19955;-69
2022/10/20 00:18:01;;;;;;;;;;;21.40;99.90;;;;;;5032214;28;19956;-74
2022/10/20 00:20:28;;;;;;;;;;;21.40;99.90;;;;;;5031944;28;19933;-78
2022/10/20 00:22:54;;;;;;;;;;;21.40;99.90;;;;;;5031789;28;19913;-71
2022/10/20 00:25:21;;;;;;;;;;;21.50;99.90;;;;;;5031825;28;19935;-71
2022/10/20 00:27:48;;;;;;;;;;;21.50;99.90;;;;;;5032114;28;19960;-70
2022/10/20 00:30:14;;;;;;;;;;;21.60;99.90;;;;;;5031884;28;19963;-71
2022/10/20 00:32:41;;;;;;;;;;;21.60;99.90;;;;;;5031784;28;19910;-67
2022/10/20 00:35:08;;;;;;;;;;;21.70;99.90;;;;;;5035982;28;19913;-69
2022/10/20 00:37:35;;;;;;;;;;;21.50;99.90;;;;;;5036198;28;19990;-68
2022/10/20 00:40:01;;;;;;;;;;;21.50;99.90;;;;;;5036081;28;20020;-70
2022/10/20 00:42:28;;;;;;;;;;;21.60;99.90;;;;;;5035771;28;19920;-73
2022/10/20 00:44:56;;;;;;;;;;;21.70;99.90;;;;;;5036017;28;19915;-72
2022/10/20 00:47:40;;;;;;;;;;;21.80;99.90;;;;;;5035660;28;19909;-75
2022/10/20 00:50:10;;;;;;;;;;;22.00;99.90;;;;;;5035677;28;19909;-69
2022/10/20 00:52:37;;;;;;;;;;;22.10;99.90;;;;;;5035510;28;19948;-69
2022/10/20 00:55:04;;;;;;;;;;;22.30;99.90;;;;;;5035358;28;19922;-67
2022/10/20 00:57:31;;;;;;;;;;;22.50;99.90;;;;;;5035589;28;20283;-67
2022/10/20 01:00:01;;;;;;;;;;;22.90;99.90;;;;;;5035580;28;20355;-71
2022/10/20 01:02:28;;;;;;;;;;;23.40;99.90;;;;;;5035401;28;20327;-68
2022/10/20 01:04:54;;;;;;;;;;;23.90;99.90;;;;;;5035354;28;19916;-67
2022/10/20 01:07:21;;;;;;;;;;;24.20;99.90;;;;;;5035315;28;19944;-67
2022/10/20 01:09:48;;;;;;;;;;;24.30;99.90;;;;;;5035644;28;19910;-68
2022/10/20 01:12:15;;;;;;;;;;;24.30;99.90;;;;;;5035384;28;20362;-68
2022/10/20 01:14:53;;;;;;;;;;;24.00;99.90;;;;;;5035185;28;19963;-70
2022/10/20 01:17:41;;;;;;;;;;;23.60;99.90;;;;;;5034876;28;19928;-68
2022/10/20 01:20:08;;;;;;;;;;;23.30;99.90;;;;;;5035362;28;20002;-69
2022/10/20 01:22:44;;;;;;;;;;;23.00;99.90;;;;;;5037933;28;20279;-68
2022/10/20 01:25:23;;;;;;;;;;;22.90;99.90;;;;;;5044111;28;19932;-75
2022/10/20 01:27:56;;;;;;;;;;;22.80;99.90;;;;;;5035106;28;19932;-72
2022/10/20 01:30:23;;;;;;;;;;;22.90;99.90;;;;;;5035707;28;19909;-70
2022/10/20 01:32:52;;;;;;;;;;;22.90;99.90;;;;;;5035648;28;19923;-76
2022/10/20 01:35:31;;;;;;;;;;;22.90;99.90;;;;;;5035503;28;19993;-72
2022/10/20 01:38:10;;;;;;;;;;;22.60;99.90;;;;;;5036061;28;19996;-69
2022/10/20 01:40:52;;;;;;;;;;;22.50;99.90;;;;;;5035589;28;20458;-75
2022/10/20 01:43:21;;;;;;;;;;;22.40;99.90;;;;;;5034894;28;19913;-78
2022/10/20 01:45:48;;;;;;;;;;;22.20;99.90;;;;;;5034398;28;19932;-75
2022/10/20 01:48:18;;;;;;;;;;;22.00;99.90;;;;;;5036567;28;19913;-77
2022/10/20 01:50:45;;;;;;;;;;;21.90;99.90;;;;;;5036402;28;19924;-71
2022/10/20 01:53:12;;;;;;;;;;;21.60;99.90;;;;;;5036019;28;19916;-77
2022/10/20 01:55:39;;;;;;;;;;;21.50;99.90;;;;;;5036076;28;20338;-74
2022/10/20 01:58:21;;;;;;;;;;;21.30;99.90;;;;;;5035426;28;19918;-68
2022/10/20 02:00:48;;;;;;;;;;;21.10;99.90;;;;;;5035967;28;19931;-69
2022/10/20 02:03:25;;;;;;;;;;;20.90;99.90;;;;;;5034934;28;20306;-75
2022/10/20 02:05:52;;;;;;;;;;;20.80;99.90;;;;;;5034916;28;19909;-67
2022/10/20 02:08:27;;;;;;;;;;;20.80;99.90;;;;;;5035366;28;19913;-68
2022/10/20 02:10:56;;;;;;;;;;;20.70;99.90;;;;;;5035734;28;19967;-67
2022/10/20 02:13:24;;;;;;;;;;;20.70;99.90;;;;;;5049803;28;19909;-66
2022/10/20 02:15:56;;;;;;;;;;;20.70;99.90;;;;;;5035048;28;19920;-66
2022/10/20 02:18:41;;;;;;;;;;;20.80;99.90;;;;;;5035252;28;19979;-67
2022/10/20 02:21:11;;;;;;;;;;;20.80;99.90;;;;;;5035883;28;19913;-71
2022/10/20 02:23:39;;;;;;;;;;;20.80;99.90;;;;;;5035428;28;19920;-69
2022/10/20 02:26:06;;;;;;;;;;;20.80;99.90;;;;;;5035363;28;20331;-69
2022/10/20 02:28:36;;;;;;;;;;;20.80;99.90;;;;;;5051410;28;20008;-66
2022/10/20 02:31:04;;;;;;;;;;;20.80;99.90;;;;;;5035981;28;20429;-70
2022/10/20 02:33:31;;;;;;;;;;;20.80;99.90;;;;;;5036776;28;19909;-72
2022/10/20 02:35:59;;;;;;;;;;;20.70;99.90;;;;;;5036003;28;19913;-72
2022/10/20 02:38:25;;;;;;;;;;;20.60;99.90;;;;;;5035186;28;19917;-68
2022/10/20 02:40:52;;;;;;;;;;;20.60;99.90;;;;;;5034861;28;19913;-67
2022/10/20 02:43:19;;;;;;;;;;;20.50;99.90;;;;;;5034269;28;19940;-69
2022/10/20 02:45:45;;;;;;;;;;;20.50;99.90;;;;;;5034768;28;19920;-67
2022/10/20 02:48:12;;;;;;;;;;;20.50;99.90;;;;;;5030900;28;19916;-67
2022/10/20 02:50:39;;;;;;;;;;;20.50;99.90;;;;;;5013130;28;19972;-69
2022/10/20 02:53:05;;;;;;;;;;;20.50;99.90;;;;;;5014023;28;19956;-68
2022/10/20 02:55:32;;;;;;;;;;;20.40;99.90;;;;;;5027722;28;19944;-76
2022/10/20 02:57:59;;;;;;;;;;;20.40;99.90;;;;;;5013086;28;19921;-71
2022/10/20 03:00:29;;;;;;;;;;;20.30;99.90;;;;;;5014590;28;19909;-78
2022/10/20 03:02:56;;;;;;;;;;;20.40;99.90;;;;;;5013426;28;19913;-77
2022/10/20 03:05:23;;;;;;;;;;;20.40;99.90;;;;;;5013402;28;19920;-75
2022/10/20 03:07:49;;;;;;;;;;;20.50;99.90;;;;;;5013492;28;20029;-71
2022/10/20 03:10:16;;;;;;;;;;;20.50;99.90;;;;;;5013417;28;19993;-71
2022/10/20 03:12:43;;;;;;;;;;;20.60;99.90;;;;;;5013366;28;19913;-73
2022/10/20 03:15:09;;;;;;;;;;;20.60;99.90;;;;;;5013005;28;19917;-75
2022/10/20 03:17:36;;;;;;;;;;;20.60;99.90;;;;;;5013220;28;20383;-77
2022/10/20 03:20:04;;;;;;;;;;;20.60;99.90;;;;;;5013187;28;19921;-75
2022/10/20 03:22:30;;;;;;;;;;;20.60;99.90;;;;;;5012997;28;20016;-78
2022/10/20 03:24:57;;;;;;;;;;;20.70;99.90;;;;;;5014135;28;19913;-75
2022/10/20 03:27:24;;;;;;;;;;;20.70;99.90;;;;;;5013077;28;19996;-73
2022/10/20 03:29:50;;;;;;;;;;;20.60;99.90;;;;;;5013341;28;19916;-74
2022/10/20 03:32:17;;;;;;;;;;;20.60;99.90;;;;;;5012969;28;19913;-70
2022/10/20 03:34:44;;;;;;;;;;;20.50;99.90;;;;;;5012970;28;20071;-73
2022/10/20 03:37:10;;;;;;;;;;;20.40;99.90;;;;;;5012643;28;20426;-77
2022/10/20 03:39:37;;;;;;;;;;;20.30;99.90;;;;;;5013570;28;20379;-74
2022/10/20 03:42:04;;;;;;;;;;;20.30;99.90;;;;;;5012683;28;20395;-76
2022/10/20 03:44:30;;;;;;;;;;;20.20;99.90;;;;;;5012954;28;19913;-75
2022/10/20 03:46:58;;;;;;;;;;;20.10;99.90;;;;;;5013060;28;19913;-76
2022/10/20 03:49:25;;;;;;;;;;;20.10;99.90;;;;;;5025615;28;19935;-75
2022/10/20 03:51:52;;;;;;;;;;;20.10;99.90;;;;;;5032145;28;19916;-76
2022/10/20 03:54:18;;;;;;;;;;;20.20;99.90;;;;;;5032333;28;19921;-70
2022/10/20 03:56:45;;;;;;;;;;;20.20;99.90;;;;;;5032396;28;19963;-77
2022/10/20 03:59:12;;;;;;;;;;;20.20;99.90;;;;;;5032196;28;19920;-71
2022/10/20 04:01:42;;;;;;;;;;;20.20;99.90;;;;;;5032524;28;19936;-72
2022/10/20 04:04:09;;;;;;;;;;;20.20;99.90;;;;;;5031855;28;19916;-67
2022/10/20 04:06:35;;;;;;;;;;;20.30;99.90;;;;;;5032340;28;19972;-72
2022/10/20 04:09:03;;;;;;;;;;;20.30;99.90;;;;;;5031558;28;19921;-71
2022/10/20 04:11:30;;;;;;;;;;;20.30;99.90;;;;;;5032307;28;19924;-68
2022/10/20 04:13:57;;;;;;;;;;;20.30;99.90;;;;;;5031667;28;19932;-70
2022/10/20 04:16:24;;;;;;;;;;;20.30;99.90;;;;;;5031973;28;19909;-67
2022/10/20 04:18:52;;;;;;;;;;;20.30;99.90;;;;;;5030005;28;20280;-68
2022/10/20 04:21:19;;;;;;;;;;;20.30;99.90;;;;;;5031899;28;19913;-72
2022/10/20 04:23:45;;;;;;;;;;;20.30;99.90;;;;;;5031871;28;19917;-68
2022/10/20 04:26:13;;;;;;;;;;;20.20;99.90;;;;;;5033595;28;19917;-68
2022/10/20 04:28:40;;;;;;;;;;;20.20;99.90;;;;;;5046678;28;19990;-73
2022/10/20 04:31:07;;;;;;;;;;;20.20;99.90;;;;;;5032361;28;20379;-76
2022/10/20 04:33:34;;;;;;;;;;;20.30;99.90;;;;;;5031815;28;19916;-73
2022/10/20 04:36:03;;;;;;;;;;;20.20;99.90;;;;;;5031888;28;19917;-78
2022/10/20 04:38:30;;;;;;;;;;;20.30;99.90;;;;;;5032189;28;19960;-78
2022/10/20 04:40:58;;;;;;;;;;;20.30;99.90;;;;;;5032049;28;20322;-76
2022/10/20 04:43:24;;;;;;;;;;;20.20;99.90;;;;;;5031421;28;20356;-77
2022/10/20 04:45:57;;;;;;;;;;;20.30;99.90;;;;;;5032749;28;19917;-76
2022/10/20 04:48:24;;;;;;;;;;;20.40;99.90;;;;;;5031801;28;19913;-77
2022/10/20 04:51:04;;;;;;;;;;;20.40;99.90;;;;;;5031862;28;19913;-76
2022/10/20 04:53:31;;;;;;;;;;;20.30;99.90;;;;;;5031412;28;19917;-78
2022/10/20 04:55:58;;;;;;;;;;;20.40;99.90;;;;;;5032007;28;19928;-78
2022/10/20 04:58:25;;;;;;;;;;;20.40;99.90;;;;;;5031870;28;19917;-78
2022/10/20 05:00:53;;;;;;;;;;;20.50;99.90;;;;;;5031843;28;20004;-78
2022/10/20 05:03:20;;;;;;;;;;;20.60;99.90;;;;;;5031137;28;19913;-77
2022/10/20 05:05:47;;;;;;;;;;;20.70;99.90;;;;;;5031829;28;19913;-77
2022/10/20 05:08:13;;;;;;;;;;;20.70;99.90;;;;;;5031890;28;19913;-77
2022/10/20 05:10:40;;;;;;;;;;;20.70;99.90;;;;;;5031791;28;19935;-77
2022/10/20 05:13:07;;;;;;;;;;;20.70;99.90;;;;;;5031303;28;19910;-76
2022/10/20 05:15:33;;;;;;;;;;;20.70;99.90;;;;;;5031728;28;19944;-77
2022/10/20 05:18:00;;;;;;;;;;;20.80;99.90;;;;;;5031677;28;20275;-77
2022/10/20 05:20:27;;;;;;;;;;;20.80;99.90;;;;;;5032996;28;19909;-68
2022/10/20 05:22:53;;;;;;;;;;;20.80;99.90;;;;;;5035059;28;19916;-77
2022/10/20 05:25:23;;;;;;;;;;;20.70;99.90;;;;;;5035052;28;20008;-74
2022/10/20 05:27:49;;;;;;;;;;;20.70;99.90;;;;;;5036003;28;19944;-77
2022/10/20 05:30:16;;;;;;;;;;;20.70;99.90;;;;;;5035621;28;19909;-77
2022/10/20 05:32:43;;;;;;;;;;;20.60;99.90;;;;;;5035261;28;19947;-78
2022/10/20 05:35:09;;;;;;;;;;;20.60;99.90;;;;;;5034601;28;20283;-74
2022/10/20 05:37:36;;;;;;;;;;;20.60;99.90;;;;;;5034971;28;19928;-78
2022/10/20 05:40:05;;;;;;;;;;;20.60;99.90;;;;;;5035071;28;19909;-72
2022/10/20 05:42:32;;;;;;;;;;;20.60;99.90;;;;;;5034581;28;19915;-72
2022/10/20 05:44:58;;;;;;;;;;;20.60;99.90;;;;;;5034774;28;19920;-71
2022/10/20 05:47:25;;;;;;;;;;;20.50;99.90;;;;;;5034403;28;20279;-68
2022/10/20 05:49:52;;;;;;;;;;;20.50;99.90;;;;;;5034567;28;20351;-77
2022/10/20 05:52:18;;;;;;;;;;;20.50;99.90;;;;;;5031939;28;19932;-73
2022/10/20 05:54:45;;;;;;;;;;;20.50;99.90;;;;;;5032499;28;20016;-68
2022/10/20 05:57:12;;;;;;;;;;;20.50;99.90;;;;;;5032513;28;19913;-68
2022/10/20 05:59:38;;;;;;;;;;;20.50;99.90;;;;;;5034817;28;20023;-69
2022/10/20 06:02:05;;;;;;;;;;;20.50;99.90;;;;;;5051105;28;19913;-78
2022/10/20 06:04:32;;;;;;;;;;;20.50;99.90;;;;;;5034713;28;19923;-74
2022/10/20 06:06:59;;;;;;;;;;;20.50;99.90;;;;;;5034702;28;20385;-75
2022/10/20 06:09:26;;;;;;;;;;;20.40;99.90;;;;;;5038353;28;19939;-75
2022/10/20 06:11:53;;;;;;;;;;;20.40;99.90;;;;;;5038354;28;19990;-75
2022/10/20 06:14:24;;;;;;;;;;;20.30;99.90;;;;;;5038706;28;20279;-77
2022/10/20 06:16:51;;;;;;;;;;;20.30;99.90;;;;;;5036980;28;19913;-77
2022/10/20 06:19:18;;;;;;;;;;;20.30;99.90;;;;;;5035326;28;19992;-72
2022/10/20 06:21:45;;;;;;;;;;;20.30;99.90;;;;;;5036488;28;20378;-77
2022/10/20 06:24:12;;;;;;;;;;;20.30;99.90;;;;;;5037482;28;20351;-77
2022/10/20 06:26:38;;;;;;;;;;;20.30;99.90;;;;;;5037055;28;20051;-78
2022/10/20 06:29:06;;;;;;;;;;;20.20;99.90;;;;;;5037498;28;20367;-77
2022/10/20 06:31:35;;;;;;;;;;;20.20;99.90;;;;;;5036354;28;19913;-77
2022/10/20 06:34:04;;;;;;;;;;;20.20;99.90;;;;;;5037381;28;19917;-77
2022/10/20 06:36:33;;;;;;;;;;;20.10;99.90;;;;;;5039792;28;20204;-75
2022/10/20 06:39:00;;;;;;;;;;;20.20;99.90;;;;;;5037426;28;19975;-76
2022/10/20 06:41:27;;;;;;;;;;;20.10;99.90;;;;;;5035859;28;19913;-76
2022/10/20 06:43:57;;;;;;;;;;;20.10;99.90;;;;;;5047901;28;20287;-76
2022/10/20 06:46:25;;;;;;;;;;;20.00;99.90;;;;;;5032267;28;19953;-76
2022/10/20 06:48:52;;;;;;;;;;;20.10;99.90;;;;;;5031517;28;19920;-77
2022/10/20 06:51:22;;;;;;;;;;;20.10;99.90;;;;;;5031508;28;20000;-77
2022/10/20 06:53:49;;;;;;;;;;;20.00;99.90;;;;;;5031234;28;19971;-74
2022/10/20 06:56:20;;;;;;;;;;;20.00;99.90;;;;;;5031376;28;19941;-75
2022/10/20 06:58:47;;;;;;;;;;;20.00;99.90;;;;;;5031358;28;19921;-77
2022/10/20 07:01:15;;;;;;;;;;;19.90;99.90;;;;;;5031915;28;19957;-78
2022/10/20 07:03:43;;;;;;;;;;;20.00;99.90;;;;;;5031180;28;20295;-76
2022/10/20 07:06:12;;;;;;;;;;;20.00;99.90;;;;;;5031412;28;19913;-76
2022/10/20 07:08:39;;;;;;;;;;;20.00;99.90;;;;;;5031504;28;19909;-76
2022/10/20 07:11:06;;;;;;;;;;;20.00;99.90;;;;;;5033669;28;20003;-76
2022/10/20 07:13:33;;;;;;;;;;;20.00;99.90;;;;;;5032952;28;19956;-75
2022/10/20 07:15:59;;;;;;;;;;;19.90;99.90;;;;;;5032126;28;19917;-77
2022/10/20 07:18:27;;;;;;;;;;;19.90;99.90;;;;;;5030997;28;19917;-78
2022/10/20 07:20:57;;;;;;;;;;;19.80;99.90;;;;;;5031289;28;19913;-78
2022/10/20 07:23:25;;;;;;;;;;;19.80;99.90;;;;;;5030204;28;20016;-76
2022/10/20 07:25:52;;;;;;;;;;;19.80;99.90;;;;;;5031289;28;19913;-68
2022/10/20 07:28:20;;;;;;;;;;;19.80;99.90;;;;;;5031721;28;19919;-68
2022/10/20 07:30:47;;;;;;;;;;;19.80;99.90;;;;;;5034571;28;19913;-68
2022/10/20 07:33:14;;;;;;;;;;;19.80;99.90;;;;;;5048423;28;19913;-77
2022/10/20 07:35:41;;;;;;;;;;;19.70;99.90;;;;;;5034148;28;19913;-76
2022/10/20 07:38:07;;;;;;;;;;;19.80;99.90;;;;;;5031056;28;19921;-76
2022/10/20 07:40:34;;;;;;;;;;;19.70;99.90;;;;;;5030913;28;20015;-77
2022/10/20 07:43:01;;;;;;;;;;;19.70;99.90;;;;;;5030889;28;19920;-76
2022/10/20 07:45:28;;;;;;;;;;;19.70;99.90;;;;;;5031502;28;19913;-77
2022/10/20 07:47:55;;;;;;;;;;;19.70;99.90;;;;;;5030342;28;19917;-76
2022/10/20 07:50:22;;;;;;;;;;;19.60;99.90;;;;;;5030291;28;20401;-76
2022/10/20 07:52:52;;;;;;;;;;;19.60;99.90;;;;;;5030462;28;19920;-76
2022/10/20 07:55:19;;;;;;;;;;;19.70;99.90;;;;;;5030301;28;19921;-76
2022/10/20 07:57:46;;;;;;;;;;;19.60;99.90;;;;;;5030658;28;19994;-77
2022/10/20 08:00:13;;;;;;;;;;;19.60;99.90;;;;;;5030267;28;19913;-75
2022/10/20 08:02:40;;;;;;;;;;;19.60;99.90;;;;;;5029636;28;19913;-76
2022/10/20 08:05:07;;;;;;;;;;;19.50;99.90;;;;;;5018165;28;20426;-77
2022/10/20 08:07:34;;;;;;;;;;;19.50;99.90;;;;;;5010499;28;19925;-76
2022/10/20 08:10:01;;;;;;;;;;;19.40;99.90;;;;;;5010581;28;19913;-74
2022/10/20 08:12:27;;;;;;;;;;;19.40;99.90;;;;;;5026775;28;20303;-76
2022/10/20 08:14:54;;;;;;;;;;;19.50;99.90;;;;;;5011404;28;20468;-77
2022/10/20 08:17:21;;;;;;;;;;;19.40;99.90;;;;;;5010835;28;20619;-76
2022/10/20 08:19:47;;;;;;;;;;;19.40;99.90;;;;;;5012435;28;19909;-76
2022/10/20 08:22:15;;;;;;;;;;;19.40;99.90;;;;;;5012118;28;19916;-76
2022/10/20 08:24:41;;;;;;;;;;;19.30;99.90;;;;;;5012102;28;19913;-76
2022/10/20 08:27:08;;;;;;;;;;;19.30;99.90;;;;;;5011545;28;19920;-76
2022/10/20 08:29:35;;;;;;;;;;;19.30;99.90;;;;;;5011032;28;20372;-76
2022/10/20 08:32:02;;;;;;;;;;;19.30;99.90;;;;;;5006696;28;20400;-76
2022/10/20 08:34:29;;;;;;;;;;;19.30;99.90;;;;;;5003832;28;19920;-74
2022/10/20 08:36:56;;;;;;;;;;;19.30;99.90;;;;;;5003677;28;19918;-73
2022/10/20 08:39:23;;;;;;;;;;;19.30;99.90;;;;;;5003860;28;20295;-72
2022/10/20 08:41:50;;;;;;;;;;;19.30;99.90;;;;;;5003700;28;20314;-71
2022/10/20 08:44:19;;;;;;;;;;;19.30;99.90;;;;;;5003063;28;19918;-74
2022/10/20 08:46:46;;;;;;;;;;;19.30;99.90;;;;;;5006354;28;19918;-72
2022/10/20 08:49:32;;;;;;;;;;;19.30;99.90;;;;;;5021585;28;19995;-70
2022/10/20 08:51:59;;;;;;;;;;;19.30;99.90;;;;;;5029390;28;19909;-68
2022/10/20 08:54:26;;;;;;;;;;;19.40;99.90;;;;;;5031263;28;20026;-68
2022/10/20 08:56:52;;;;;;;;;;;19.30;99.90;;;;;;5033656;28;20364;-67
2022/10/20 08:59:32;;;;;;;;;;;19.40;99.90;;;;;;5012781;28;19918;-67
2022/10/20 09:01:59;;;;;;;;;;;19.40;99.90;;;;;;5013191;28;19924;-67
2022/10/20 09:04:31;;;;;;;;;;;19.40;99.90;;;;;;5015354;28;19944;-68
2022/10/20 09:07:00;;;;;;;;;;;19.40;99.90;;;;;;5017452;28;19960;-68
2022/10/20 09:09:29;;;;;;;;;;;19.40;99.90;;;;;;5014361;28;19920;-71
2022/10/20 09:12:00;;;;;;;;;;;19.40;99.90;;;;;;5012379;28;19939;-67
2022/10/20 09:14:28;;;;;;;;;;;19.40;99.90;;;;;;5013269;28;19996;-68
2022/10/20 09:16:54;;;;;;;;;;;19.40;99.90;;;;;;5013556;28;20399;-68
2022/10/20 09:19:22;;;;;;;;;;;19.40;99.90;;;;;;5013348;28;19917;-67
2022/10/20 09:21:51;;;;;;;;;;;19.40;99.90;;;;;;5013219;28;19913;-72
2022/10/20 09:24:20;;;;;;;;;;;19.40;99.90;;;;;;5013047;28;19917;-67
2022/10/20 09:26:48;;;;;;;;;;;19.40;99.90;;;;;;5012335;28;19914;-67
2022/10/20 09:29:16;;;;;;;;;;;19.40;99.90;;;;;;5006458;28;19920;-67
2022/10/20 09:31:45;;;;;;;;;;;19.40;99.90;;;;;;4993461;28;19910;-67
2022/10/20 09:34:21;;;;;;;;;;;19.40;99.90;;;;;;4993630;28;19914;-67
2022/10/20 09:36:49;;;;;;;;;;;19.40;99.90;;;;;;4993070;28;19910;-69
2022/10/20 09:39:26;;;;;;;;;;;19.40;99.90;;;;;;4993612;28;19957;-69
2022/10/20 09:42:04;;;;;;;;;;;19.40;99.90;;;;;;4998543;28;19917;-68
2022/10/20 09:44:33;;;;;;;;;;;19.40;99.90;;;;;;5013259;28;19925;-69
2022/10/20 09:47:01;;;;;;;;;;;19.40;99.90;;;;;;5013040;28;19936;-71
2022/10/20 09:49:30;;;;;;;;;;;19.40;99.90;;;;;;5026586;28;19913;-69
2022/10/20 09:51:57;;;;;;;;;;;19.40;99.90;;;;;;5032229;28;19986;-67
2022/10/20 09:54:25;;;;;;;;;;;19.30;99.90;;;;;;5032507;28;20055;-68
2022/10/20 09:56:52;;;;;;;;;;;19.30;99.90;;;;;;5024330;28;19943;-70
2022/10/20 09:59:24;;;;;;;;;;;19.30;99.90;;;;;;5012636;28;19933;-67
2022/10/20 10:01:59;;;;;;;;;;;19.30;99.90;;;;;;5012296;28;19933;-68
2022/10/20 10:04:33;;;;;;;;;;;19.20;99.90;;;;;;5012496;28;20352;-71
2022/10/20 10:07:00;;;;;;;;;;;19.20;99.90;;;;;;5012110;28;19913;-71
2022/10/20 10:09:33;;;;;;;;;;;19.20;99.90;;;;;;5012575;28;19967;-74
2022/10/20 10:12:04;;;;;;;;;;;19.20;99.90;;;;;;5011084;28;20439;-73
2022/10/20 10:14:32;;;;;;;;;;;19.10;99.90;;;;;;5005677;28;19913;-74
2022/10/20 10:16:59;;;;;;;;;;;19.10;99.90;;;;;;5005835;28;19917;-77
2022/10/20 10:19:27;;;;;;;;;;;19.10;99.90;;;;;;5006019;28;19917;-71
2022/10/20 10:21:56;;;;;;;;;;;19.00;99.90;;;;;;5005771;28;19960;-72
2022/10/20 10:24:42;;;;;;;;;;;19.00;99.90;;;;;;5005848;28;19914;-73
2022/10/20 10:27:25;;;;;;;;;;;18.90;99.90;;;;;;5004837;28;19918;-69
2022/10/20 10:29:52;;;;;;;;;;;18.90;99.90;;;;;;5005226;28;20013;-70
2022/10/20 10:32:25;;;;;;;;;;;18.80;99.90;;;;;;5005475;28;19913;-69
2022/10/20 10:35:12;;;;;;;;;;;18.80;99.90;;;;;;5020734;28;19967;-74
2022/10/20 10:37:40;;;;;;;;;;;18.80;99.90;;;;;;5005513;28;19922;-70
2022/10/20 10:40:17;;;;;;;;;;;18.80;99.90;;;;;;5005677;28;20459;-74
2022/10/20 10:42:43;;;;;;;;;;;18.80;99.90;;;;;;5005147;28;19996;-72
2022/10/20 10:45:18;;;;;;;;;;;18.80;99.90;;;;;;5005320;28;19945;-68
2022/10/20 10:47:53;;;;;;;;;;;18.80;99.90;;;;;;5005379;28;19920;-68
2022/10/20 10:50:37;;;;;;;;;;;18.80;99.90;;;;;;4986009;28;19925;-75
2022/10/20 10:53:23;;;;;;;;;;;18.80;99.90;;;;;;4985403;28;19921;-73
2022/10/20 10:55:54;;;;;;;;;;;18.80;99.90;;;;;;4991840;28;19929;-70
2022/10/20 10:58:30;;;;;;;;;;;18.80;99.90;;;;;;5005295;28;19968;-69
2022/10/20 11:01:02;;;;;;;;;;;18.80;99.90;;;;;;5005237;28;19914;-70
2022/10/20 11:04:05;;;;;;;;;;;18.80;99.90;;;;;;5004666;28;20632;-74
2022/10/20 11:06:51;;;;;;;;;;;18.80;99.90;;;;;;4982360;28;20068;-72
2022/10/20 11:09:41;;;;;;;;;;;18.80;99.90;;;;;;5002874;28;19927;-70
2022/10/20 11:12:07;;;;;;;;;;;18.70;99.90;;;;;;5000214;28;19921;-68
2022/10/20 11:15:01;;;;;;;;;;;18.60;99.90;;;;;;5004813;28;19920;-72
2022/10/20 11:17:46;;;;;;;;;;;18.70;99.90;;;;;;4994584;28;20444;-67
2022/10/20 11:20:25;;;;;;;;;;;18.70;99.90;;;;;;5005054;28;19917;-72
2022/10/20 11:22:58;;;;;;;;;;;18.60;99.90;;;;;;5004376;28;19925;-73
2022/10/20 11:25:27;;;;;;;;;;;18.60;99.90;;;;;;5003988;28;19996;-74
2022/10/20 11:27:55;;;;;;;;;;;18.60;99.90;;;;;;5004168;28;19918;-69
2022/10/20 11:30:22;;;;;;;;;;;18.60;99.90;;;;;;5004848;28;20638;-72
2022/10/20 11:32:55;;;;;;;;;;;18.60;99.90;;;;;;5008455;28;20610;-67
2022/10/20 11:35:31;;;;;;;;;;;18.60;99.90;;;;;;5010277;28;19940;-74
2022/10/20 11:38:04;;;;;;;;;;;18.60;99.90;;;;;;5026441;28;19921;-77
2022/10/20 11:40:37;;;;;;;;;;;18.50;99.90;;;;;;5010532;28;20375;-77
2022/10/20 11:43:23;;;;;;;;;;;18.60;99.90;;;;;;5010874;28;19913;-76
2022/10/20 11:45:53;;;;;;;;;;;18.50;99.90;;;;;;5011155;28;19917;-71
2022/10/20 11:48:26;;;;;;;;;;;18.50;99.90;;;;;;5014777;28;20012;-76
2022/10/20 11:51:03;;;;;;;;;;;18.60;99.90;;;;;;5030701;28;19913;-70
2022/10/20 11:53:42;;;;;;;;;;;18.50;99.90;;;;;;5030237;28;19924;-68
2022/10/20 11:56:12;;;;;;;;;;;18.50;99.90;;;;;;5011704;28;19914;-68
2022/10/20 11:58:47;;;;;;;;;;;18.50;99.90;;;;;;5009736;28;20407;-72
2022/10/20 12:01:33;;;;;;;;;;;18.50;99.90;;;;;;5009798;28;19917;-68
2022/10/20 12:04:03;;;;;;;;;;;18.50;99.90;;;;;;5010658;28;20398;-68
2022/10/20 12:06:48;;;;;;;;;;;18.40;99.90;;;;;;5010726;28;20004;-69
2022/10/20 12:09:17;;;;;;;;;;;18.50;99.90;;;;;;5009507;28;20532;-69
2022/10/20 12:11:56;;;;;;;;;;;18.50;99.90;;;;;;5009415;28;20347;-69
2022/10/20 12:14:26;;;;;;;;;;;18.50;99.90;;;;;;5010267;28;19913;-72
2022/10/20 12:16:52;;;;;;;;;;;18.50;99.90;;;;;;5010318;28;20388;-68
2022/10/20 12:19:24;;;;;;;;;;;18.60;99.90;;;;;;5010294;28;20500;-70
2022/10/20 12:21:54;;;;;;;;;;;18.50;99.90;;;;;;5010197;28;20027;-70
2022/10/20 12:24:33;;;;;;;;;;;18.50;99.90;;;;;;5009537;28;19936;-69
2022/10/20 12:27:05;;;;;;;;;;;18.50;99.90;;;;;;5009422;28;20572;-70
2022/10/20 12:29:31;;;;;;;;;;;18.60;99.90;;;;;;5010012;28;19975;-70
2022/10/20 12:32:19;;;;;;;;;;;18.50;99.90;;;;;;5009991;28;20368;-70
2022/10/20 12:34:50;;;;;;;;;;;18.50;99.90;;;;;;5010434;28;19913;-70
2022/10/20 12:37:37;;;;;;;;;;;18.60;99.90;;;;;;5009964;28;20055;-69
2022/10/20 12:40:09;;;;;;;;;;;18.60;99.90;;;;;;5008782;28;19947;-69
2022/10/20 12:42:37;;;;;;;;;;;18.60;99.90;;;;;;5009873;28;19910;-70
2022/10/20 12:45:06;;;;;;;;;;;18.60;99.90;;;;;;5009871;28;20399;-71
2022/10/20 12:47:34;;;;;;;;;;;18.60;99.90;;;;;;5010010;28;19914;-68
2022/10/20 12:50:07;;;;;;;;;;;18.60;99.90;;;;;;5028018;28;19913;-70
2022/10/20 12:52:35;;;;;;;;;;;18.60;99.90;;;;;;5029442;28;19944;-68
2022/10/20 12:55:05;;;;;;;;;;;18.70;99.90;;;;;;5011702;28;20378;-71
2022/10/20 12:57:41;;;;;;;;;;;18.70;99.90;;;;;;5009268;28;19924;-72
2022/10/20 13:00:31;;;;;;;;;;;18.70;99.90;;;;;;5010162;28;19921;-70
2022/10/20 13:02:59;;;;;;;;;;;18.70;99.90;;;;;;5009493;28;20288;-67
2022/10/20 13:05:40;;;;;;;;;;;18.70;99.90;;;;;;5010003;28;20467;-67
2022/10/20 13:08:19;;;;;;;;;;;18.70;99.90;;;;;;5008801;28;19928;-68
2022/10/20 13:10:47;;;;;;;;;;;18.70;99.90;;;;;;5010100;28;20012;-68
2022/10/20 13:13:20;;;;;;;;;;;18.60;99.90;;;;;;5009331;28;19913;-67
2022/10/20 13:15:51;;;;;;;;;;;18.70;99.90;;;;;;5009921;28;19914;-67
2022/10/20 13:18:27;;;;;;;;;;;18.70;99.90;;;;;;5009914;28;19917;-67
2022/10/20 13:21:18;;;;;;;;;;;18.60;99.90;;;;;;5009678;28;19952;-67
2022/10/20 13:23:47;;;;;;;;;;;18.60;99.90;;;;;;5008883;28;19953;-68
2022/10/20 13:26:24;;;;;;;;;;;18.60;99.90;;;;;;5009939;28;20463;-68
2022/10/20 13:28:52;;;;;;;;;;;18.60;99.90;;;;;;5009969;28;19920;-68
2022/10/20 13:31:22;;;;;;;;;;;18.60;99.90;;;;;;5009129;28;19950;-67
2022/10/20 13:33:58;;;;;;;;;;;18.60;99.90;;;;;;5009347;28;19916;-67
2022/10/20 13:37:03;;;;;;;;;;;18.60;99.90;;;;;;5009721;28;19910;-70
2022/10/20 13:39:32;;;;;;;;;;;18.60;99.90;;;;;;4984653;28;19937;-70
2022/10/20 13:42:01;;;;;;;;;;;18.50;99.90;;;;;;4989547;28;19909;-67
2022/10/20 13:44:28;;;;;;;;;;;18.60;99.90;;;;;;5001225;28;20358;-69
2022/10/20 13:47:02;;;;;;;;;;;18.50;99.90;;;;;;5012902;28;19910;-67
2022/10/20 13:49:42;;;;;;;;;;;18.50;99.90;;;;;;5026552;28;19913;-68
2022/10/20 13:52:13;;;;;;;;;;;18.50;99.90;;;;;;5032553;28;19921;-69
2022/10/20 13:54:43;;;;;;;;;;;18.50;99.90;;;;;;5013537;28;20024;-68
2022/10/20 13:57:19;;;;;;;;;;;18.50;99.90;;;;;;5012445;28;19928;-71
2022/10/20 13:59:54;;;;;;;;;;;18.50;99.90;;;;;;5012613;28;19940;-68
2022/10/20 14:02:23;;;;;;;;;;;18.50;99.90;;;;;;5012460;28;20327;-70
2022/10/20 14:05:00;;;;;;;;;;;18.60;99.90;;;;;;5012751;28;19941;-68
2022/10/20 14:07:35;;;;;;;;;;;18.60;99.90;;;;;;5011742;28;19965;-69
2022/10/20 14:10:01;;;;;;;;;;;18.60;99.90;;;;;;5012811;28;19977;-71
2022/10/20 14:12:28;;;;;;;;;;;18.60;99.90;;;;;;5010934;28;19917;-73
2022/10/20 14:14:55;;;;;;;;;;;18.60;99.90;;;;;;5012621;28;20637;-68
2022/10/20 14:17:23;;;;;;;;;;;18.60;99.90;;;;;;5012248;28;19984;-67
2022/10/20 14:19:50;;;;;;;;;;;18.60;99.90;;;;;;5012470;28;20370;-67
2022/10/20 14:22:21;;;;;;;;;;;18.60;99.90;;;;;;5011349;28;21402;-67
2022/10/20 14:24:52;;;;;;;;;;;18.70;99.90;;;;;;5011988;28;19961;-71
2022/10/20 14:27:21;;;;;;;;;;;18.70;99.90;;;;;;5012224;28;19914;-70
2022/10/20 14:29:48;;;;;;;;;;;18.70;99.90;;;;;;5012389;28;19917;-71
2022/10/20 14:32:20;;;;;;;;;;;18.70;99.90;;;;;;5010926;28;19913;-67